createdAt,value
2019-03-22T00:01:03.714Z,3.80
2019-03-22T00:03:39.364Z,4.30
2019-03-22T00:06:10.293Z,3.10
2019-03-22T00:08:41.141Z,4.40
2019-03-22T00:11:12.152Z,3.57
2019-03-22T00:13:43.141Z,5.17
2019-03-22T00:16:15.410Z,4.43
2019-03-22T00:18:48.558Z,4.10
2019-03-22T00:21:19.222Z,3.93
2019-03-22T00:23:50.221Z,4.00
2019-03-22T00:26:21.143Z,3.80
2019-03-22T00:28:54.276Z,4.03
2019-03-22T00:31:24.912Z,3.77
2019-03-22T00:33:55.820Z,3.83
2019-03-22T00:36:26.640Z,3.47
2019-03-22T00:38:57.664Z,4.00
2019-03-22T00:41:28.942Z,3.60
2019-03-22T00:44:00.125Z,3.70
2019-03-22T00:46:33.374Z,3.73
2019-03-22T00:49:05.660Z,3.50
2019-03-22T00:51:38.071Z,4.00
2019-03-22T00:54:11.941Z,4.00
2019-03-22T00:56:45.392Z,3.53
2019-03-22T00:59:16.497Z,4.00
2019-03-22T01:01:47.236Z,3.80
2019-03-22T01:04:17.962Z,2.90
2019-03-22T01:06:49.315Z,3.90
2019-03-22T01:09:20.106Z,3.00
2019-03-22T01:11:50.882Z,3.30
2019-03-22T01:14:22.028Z,3.70
2019-03-22T01:16:53.208Z,3.90
2019-03-22T01:19:24.501Z,4.00
2019-03-22T01:21:55.492Z,4.30
2019-03-22T01:24:26.857Z,4.47
2019-03-22T01:26:57.627Z,4.70
2019-03-22T01:29:29.021Z,3.67
2019-03-22T01:31:59.893Z,3.60
2019-03-22T01:34:30.700Z,4.03
2019-03-22T01:37:04.575Z,3.73
2019-03-22T01:39:34.496Z,3.30
2019-03-22T01:42:10.061Z,3.93
2019-03-22T01:44:41.240Z,3.93
2019-03-22T01:47:12.096Z,3.60
2019-03-22T01:49:42.977Z,3.80
2019-03-22T01:52:13.761Z,3.60
2019-03-22T01:54:44.681Z,3.83
2019-03-22T01:57:15.796Z,3.57
2019-03-22T01:59:46.611Z,3.60
2019-03-22T02:02:17.352Z,3.40
2019-03-22T02:04:48.761Z,3.80
2019-03-22T02:07:19.607Z,3.47
2019-03-22T02:09:50.685Z,4.37
2019-03-22T02:12:21.582Z,3.53
2019-03-22T02:14:55.503Z,3.90
2019-03-22T02:17:26.773Z,3.90
2019-03-22T02:20:02.264Z,3.70
2019-03-22T02:22:33.193Z,4.00
2019-03-22T02:25:05.826Z,4.30
2019-03-22T02:27:36.956Z,4.67
2019-03-22T02:30:08.040Z,3.90
2019-03-22T02:32:40.535Z,4.40
2019-03-22T02:35:27.440Z,4.13
2019-03-22T02:37:46.309Z,4.10
2019-03-22T02:40:17.875Z,4.20
2019-03-22T02:42:48.727Z,3.90
2019-03-22T02:45:19.776Z,3.47
2019-03-22T02:47:51.300Z,3.93
2019-03-22T02:50:22.575Z,3.97
2019-03-22T02:52:53.248Z,3.73
2019-03-22T02:55:24.148Z,3.87
2019-03-22T02:57:57.690Z,4.17
2019-03-22T03:00:31.152Z,4.07
2019-03-22T03:03:02.114Z,4.10
2019-03-22T03:05:32.854Z,4.47
2019-03-22T03:08:03.824Z,4.10
2019-03-22T03:10:34.692Z,4.25
2019-03-22T03:13:05.753Z,4.60
2019-03-22T03:15:36.442Z,4.23
2019-03-22T03:18:07.456Z,4.50
2019-03-22T03:20:38.254Z,5.13
2019-03-22T03:23:08.957Z,4.30
2019-03-22T03:25:42.003Z,5.03
2019-03-22T03:28:12.856Z,3.83
2019-03-22T03:30:44.959Z,4.50
2019-03-22T03:33:15.956Z,4.47
2019-03-22T03:35:47.243Z,4.40
2019-03-22T03:38:20.034Z,4.53
2019-03-22T03:40:53.827Z,4.30
2019-03-22T03:43:24.541Z,4.90
2019-03-22T03:45:55.303Z,4.53
2019-03-22T03:48:26.178Z,4.83
2019-03-22T03:50:56.956Z,4.53
2019-03-22T03:53:29.374Z,5.00
2019-03-22T03:56:00.522Z,4.10
2019-03-22T03:58:31.218Z,5.50
2019-03-22T04:01:02.011Z,4.23
2019-03-22T04:03:33.009Z,3.83
2019-03-22T04:06:04.106Z,4.83
2019-03-22T04:08:35.073Z,3.87
2019-03-22T04:11:05.828Z,4.33
2019-03-22T04:13:36.831Z,4.37
2019-03-22T04:16:07.548Z,4.10
2019-03-22T04:18:38.283Z,3.83
2019-03-22T04:21:09.100Z,4.50
2019-03-22T04:23:39.904Z,3.73
2019-03-22T04:26:10.741Z,4.17
2019-03-22T04:28:41.798Z,4.10
2019-03-22T04:31:13.031Z,4.23
2019-03-22T04:33:46.861Z,4.63
2019-03-22T04:36:17.570Z,3.93
2019-03-22T04:38:48.648Z,3.70
2019-03-22T04:41:19.646Z,3.60
2019-03-22T04:43:51.009Z,4.00
2019-03-22T04:46:22.233Z,4.80
2019-03-22T04:48:53.992Z,4.67
2019-03-22T04:51:25.927Z,4.37
2019-03-22T04:54:02.403Z,4.13
2019-03-22T04:56:34.450Z,3.90
2019-03-22T04:59:14.174Z,3.67
2019-03-22T05:01:40.289Z,4.70
2019-03-22T05:04:11.560Z,4.87
2019-03-22T05:06:44.401Z,5.30
2019-03-22T05:09:16.564Z,4.53
2019-03-22T05:11:48.708Z,4.23
2019-03-22T05:14:20.063Z,4.40
2019-03-22T05:16:51.767Z,4.20
2019-03-22T05:19:24.320Z,4.10
2019-03-22T05:21:55.768Z,4.27
2019-03-22T05:24:27.098Z,3.80
2019-03-22T05:26:59.666Z,4.30
2019-03-22T05:29:32.507Z,4.47
2019-03-22T05:32:09.837Z,4.00
2019-03-22T05:34:43.615Z,4.47
2019-03-22T05:37:14.752Z,4.50
2019-03-22T05:39:45.612Z,4.47
2019-03-22T05:42:16.641Z,4.30
2019-03-22T05:44:49.689Z,4.63
2019-03-22T05:47:23.387Z,5.27
2019-03-22T05:49:55.751Z,3.90
2019-03-22T05:52:26.762Z,4.00
2019-03-22T05:54:57.914Z,3.73
2019-03-22T05:57:28.979Z,4.20
2019-03-22T06:00:00.429Z,4.57
2019-03-22T06:02:31.335Z,4.20
2019-03-22T06:05:02.599Z,5.05
2019-03-22T06:07:38.173Z,4.77
2019-03-22T06:10:09.104Z,4.70
2019-03-22T06:12:40.439Z,5.00
2019-03-22T06:15:14.202Z,4.40
2019-03-22T06:17:51.557Z,4.70
2019-03-22T06:20:17.725Z,5.93
2019-03-22T06:22:48.618Z,5.30
2019-03-22T06:25:19.336Z,6.10
2019-03-22T06:27:56.275Z,6.27
2019-03-22T06:30:30.297Z,6.37
2019-03-22T06:33:01.406Z,8.87
2019-03-22T06:35:32.380Z,10.60
2019-03-22T06:38:03.512Z,10.10
2019-03-22T06:40:34.455Z,12.60
2019-03-22T06:43:05.932Z,11.93
2019-03-22T06:45:38.865Z,13.73
2019-03-22T06:48:10.261Z,12.10
2019-03-22T06:50:48.451Z,12.50
2019-03-22T06:53:22.373Z,8.40
2019-03-22T06:55:53.380Z,8.33
2019-03-22T06:58:27.652Z,8.10
2019-03-22T07:01:00.194Z,8.57
2019-03-22T07:03:33.777Z,7.53
2019-03-22T07:06:04.886Z,8.80
2019-03-22T07:08:36.152Z,9.93
2019-03-22T07:11:07.182Z,10.18
2019-03-22T07:13:38.148Z,7.87
2019-03-22T07:16:09.448Z,8.33
2019-03-22T07:18:40.613Z,8.47
2019-03-22T07:21:12.084Z,8.13
2019-03-22T07:23:43.169Z,8.53
2019-03-22T07:26:14.110Z,8.00
2019-03-22T07:28:45.352Z,8.53
2019-03-22T07:31:16.250Z,8.48
2019-03-22T07:33:48.127Z,8.00
2019-03-22T07:36:19.148Z,6.70
2019-03-22T07:38:50.449Z,7.23
2019-03-22T07:41:21.478Z,8.30
2019-03-22T07:43:52.705Z,7.10
2019-03-22T07:46:23.802Z,8.33
2019-03-22T07:48:54.967Z,7.77
2019-03-22T07:51:27.467Z,8.27
2019-03-22T07:53:58.479Z,8.60
2019-03-22T07:56:29.537Z,7.80
2019-03-22T07:59:03.723Z,7.50
2019-03-22T08:01:34.802Z,7.63
2019-03-22T08:04:06.808Z,8.63
2019-03-22T08:06:37.849Z,7.27
2019-03-22T08:09:11.027Z,7.10
2019-03-22T08:11:42.369Z,6.77
2019-03-22T08:14:16.922Z,7.50
2019-03-22T08:16:48.030Z,7.60
2019-03-22T08:19:19.011Z,7.40
2019-03-22T08:21:50.401Z,6.70
2019-03-22T08:24:21.528Z,7.40
2019-03-22T08:26:52.862Z,7.07
2019-03-22T08:29:24.208Z,6.80
2019-03-22T08:31:55.502Z,7.17
2019-03-22T08:34:26.867Z,6.90
2019-03-22T08:36:58.028Z,6.20
2019-03-22T08:39:30.177Z,6.93
2019-03-22T08:42:01.539Z,6.73
2019-03-22T08:44:32.889Z,6.60
2019-03-22T08:47:05.742Z,5.83
2019-03-22T08:49:40.287Z,6.30
2019-03-22T08:52:11.650Z,5.97
2019-03-22T08:54:42.915Z,6.50
2019-03-22T08:57:15.624Z,6.10
2019-03-22T08:59:47.256Z,6.23
2019-03-22T09:02:18.564Z,6.20
2019-03-22T09:04:49.678Z,5.80
2019-03-22T09:07:24.448Z,6.53
2019-03-22T09:09:55.890Z,6.37
2019-03-22T09:12:27.062Z,6.37
2019-03-22T09:15:02.332Z,5.97
2019-03-22T09:17:33.365Z,5.65
2019-03-22T09:20:07.488Z,5.55
2019-03-22T09:22:39.157Z,5.62
2019-03-22T09:25:10.492Z,5.15
2019-03-22T09:27:41.520Z,5.15
2019-03-22T09:30:12.996Z,5.22
2019-03-22T09:32:44.078Z,6.03
2019-03-22T09:35:15.439Z,4.90
2019-03-22T09:37:47.049Z,5.93
2019-03-22T09:40:20.872Z,6.03
2019-03-22T09:42:53.140Z,5.58
2019-03-22T09:45:24.401Z,4.90
2019-03-22T09:47:55.919Z,5.20
2019-03-22T09:50:26.809Z,5.25
2019-03-22T09:52:57.605Z,4.25
2019-03-22T09:55:28.533Z,4.60
2019-03-22T09:57:59.277Z,4.40
2019-03-22T10:00:35.432Z,4.78
2019-03-22T10:03:06.473Z,4.35
2019-03-22T10:05:37.431Z,4.60
2019-03-22T10:08:08.251Z,4.75
2019-03-22T10:10:39.665Z,4.73
2019-03-22T10:13:11.098Z,4.47
2019-03-22T10:15:41.872Z,5.30
2019-03-22T10:18:13.015Z,4.92
2019-03-22T10:20:47.371Z,5.95
2019-03-22T10:23:22.394Z,5.65
2019-03-22T10:25:53.095Z,5.72
2019-03-22T10:28:24.987Z,5.40
2019-03-22T10:30:55.724Z,6.22
2019-03-22T10:33:28.268Z,5.70
2019-03-22T10:35:59.288Z,6.05
2019-03-22T10:38:32.055Z,6.10
2019-03-22T10:41:03.587Z,6.08
2019-03-22T10:43:34.354Z,7.15
2019-03-22T10:46:07.859Z,6.50
2019-03-22T10:48:43.318Z,6.92
2019-03-22T10:51:14.391Z,7.00
2019-03-22T10:53:47.295Z,6.20
2019-03-22T10:56:17.739Z,6.10
2019-03-22T10:58:48.510Z,5.83
2019-03-22T11:01:21.283Z,6.65
2019-03-22T11:03:52.942Z,6.03
2019-03-22T11:06:26.366Z,6.97
2019-03-22T11:08:56.579Z,6.22
2019-03-22T11:11:27.600Z,5.85
2019-03-22T11:13:58.703Z,5.97
2019-03-22T11:16:31.484Z,5.83
2019-03-22T11:19:02.208Z,6.37
2019-03-22T11:24:05.401Z,6.10
2019-03-22T11:26:36.701Z,6.40
2019-03-22T11:29:07.589Z,5.60
2019-03-22T11:31:40.175Z,5.85
2019-03-22T11:34:11.633Z,5.70
2019-03-22T11:36:42.862Z,6.75
2019-03-22T11:39:15.708Z,6.10
2019-03-22T11:41:46.555Z,6.40
2019-03-22T11:44:19.579Z,5.60
2019-03-22T11:46:50.118Z,6.40
2019-03-22T11:54:20.413Z,5.92
2019-03-22T11:56:54.319Z,6.08
2019-03-22T11:59:25.243Z,6.40
2019-03-22T12:01:56.136Z,6.45
2019-03-22T12:04:27.119Z,6.60
2019-03-22T12:06:58.239Z,5.97
2019-03-22T12:09:29.420Z,6.35
2019-03-22T12:12:00.211Z,6.58
2019-03-22T12:14:31.304Z,6.53
2019-03-22T12:17:04.839Z,7.03
2019-03-22T12:19:35.643Z,7.10
2019-03-22T12:22:06.961Z,5.75
2019-03-22T12:24:37.916Z,6.30
2019-03-22T12:27:09.311Z,6.45
2019-03-22T12:29:40.233Z,6.12
2019-03-22T12:32:14.566Z,5.97
2019-03-22T12:34:48.130Z,6.10
2019-03-22T12:37:20.303Z,6.70
2019-03-22T12:39:51.203Z,6.42
2019-03-22T12:42:22.341Z,6.35
2019-03-22T12:44:53.418Z,7.00
2019-03-22T12:47:29.527Z,7.12
2019-03-22T12:50:00.499Z,6.05
2019-03-22T12:52:31.491Z,6.63
2019-03-22T13:07:33.768Z,8.40
2019-03-22T13:10:05.884Z,8.20
2019-03-22T13:12:37.293Z,8.63
2019-03-22T13:17:38.041Z,8.50
2019-03-22T13:20:09.828Z,8.00
2019-03-22T13:25:10.551Z,8.75
2019-03-22T13:27:44.327Z,8.80
2019-03-22T13:30:21.373Z,8.35
2019-03-22T13:32:52.458Z,8.10
2019-03-22T13:37:53.189Z,7.40
2019-03-22T13:40:24.226Z,7.10
2019-03-22T13:42:55.298Z,7.15
2019-03-22T13:52:54.991Z,6.97
2019-03-22T13:55:25.969Z,8.13
2019-03-22T13:57:57.233Z,8.38
2019-03-22T14:00:30.906Z,8.83
2019-03-22T14:03:04.971Z,9.40
2019-03-22T14:05:38.757Z,9.80
2019-03-22T14:08:10.294Z,10.70
2019-03-22T14:10:41.397Z,11.00
2019-03-22T14:13:14.265Z,11.10
2019-03-22T14:15:45.269Z,10.50
2019-03-22T14:18:16.108Z,11.70
2019-03-22T14:20:47.106Z,11.93
2019-03-22T14:23:19.945Z,10.60
2019-03-22T14:25:53.426Z,10.90
2019-03-22T14:28:26.115Z,11.27
2019-03-22T14:30:57.013Z,10.20
2019-03-22T14:33:28.391Z,10.60
2019-03-22T14:35:59.571Z,11.20
2019-03-22T14:38:33.215Z,10.03
2019-03-22T14:41:04.253Z,11.10
2019-03-22T14:43:35.425Z,12.27
2019-03-22T14:46:08.478Z,11.30
2019-03-22T14:48:39.646Z,11.63
2019-03-22T14:51:10.652Z,12.27
2019-03-22T14:53:41.908Z,11.40
2019-03-22T14:56:13.028Z,11.50
2019-03-22T14:58:44.293Z,12.60
2019-03-22T15:01:15.571Z,12.20
2019-03-22T15:06:16.685Z,12.20
2019-03-22T15:08:47.729Z,12.55
2019-03-22T15:11:19.658Z,12.40
2019-03-22T15:16:52.295Z,12.60
2019-03-22T15:19:42.603Z,13.55
2019-03-22T15:25:12.391Z,13.50
2019-03-22T15:28:01.813Z,13.20
2019-03-22T15:30:50.760Z,13.40
2019-03-22T15:33:46.936Z,25.50
2019-03-22T15:36:52.112Z,21.42
2019-03-22T15:39:41.143Z,17.93
2019-03-22T15:42:12.132Z,12.90
2019-03-22T15:44:43.617Z,15.23
2019-03-22T15:47:14.701Z,14.47
2019-03-22T15:49:45.875Z,13.40
2019-03-22T15:52:17.139Z,14.43
2019-03-22T15:54:48.286Z,13.90
2019-03-22T15:57:19.304Z,15.60
2019-03-22T15:59:50.275Z,13.37
2019-03-22T16:02:22.355Z,15.80
2019-03-22T16:04:53.267Z,13.43
2019-03-22T16:07:24.693Z,13.97
2019-03-22T16:09:55.762Z,13.50
2019-03-22T16:12:26.989Z,14.20
2019-03-22T16:14:58.502Z,14.87
2019-03-22T16:17:30.734Z,15.53
2019-03-22T16:20:01.748Z,14.57
2019-03-22T16:22:33.824Z,15.70
2019-03-22T16:25:05.849Z,15.10
2019-03-22T16:27:37.865Z,14.90
2019-03-22T16:30:09.270Z,15.20
2019-03-22T16:32:40.390Z,15.27
2019-03-22T16:35:12.676Z,13.40
2019-03-22T16:37:43.834Z,17.17
2019-03-22T16:40:23.890Z,18.73
2019-03-22T16:42:49.024Z,18.57
2019-03-22T16:45:38.471Z,19.10
2019-03-22T16:48:10.553Z,19.60
2019-03-22T16:50:41.830Z,17.87
2019-03-22T16:53:13.135Z,17.77
2019-03-22T16:55:44.126Z,16.63
2019-03-22T16:58:15.383Z,17.70
2019-03-22T17:00:46.835Z,16.73
2019-03-22T17:03:17.898Z,18.70
2019-03-22T17:05:49.375Z,18.93
2019-03-22T17:08:20.419Z,17.20
2019-03-22T17:10:51.506Z,16.30
2019-03-22T17:13:22.637Z,16.17
2019-03-22T17:15:53.722Z,18.10
2019-03-22T17:18:24.727Z,16.17
2019-03-22T17:20:55.850Z,17.12
2019-03-22T17:23:26.724Z,16.27
2019-03-22T17:25:57.716Z,16.93
2019-03-22T17:28:28.727Z,17.90
2019-03-22T17:30:59.452Z,20.27
2019-03-22T17:33:30.761Z,18.27
2019-03-22T17:36:02.223Z,17.30
2019-03-22T17:38:34.304Z,16.70
2019-03-22T17:41:05.533Z,25.10
2019-03-22T17:43:36.715Z,18.40
2019-03-22T17:46:07.845Z,19.00
2019-03-22T17:48:38.960Z,18.10
2019-03-22T17:51:10.185Z,20.27
2019-03-22T17:53:41.405Z,19.40
2019-03-22T17:56:12.724Z,28.70
2019-03-22T17:58:43.982Z,26.10
2019-03-22T18:03:42.131Z,20.30
2019-03-22T18:06:13.168Z,18.80
2019-03-22T18:08:44.284Z,16.77
2019-03-22T18:11:15.594Z,18.83
2019-03-22T18:13:46.650Z,19.13
2019-03-22T18:16:17.766Z,19.60
2019-03-22T18:18:49.090Z,18.47
2019-03-22T18:21:20.312Z,19.57
2019-03-22T18:23:51.677Z,19.30
2019-03-22T18:26:22.725Z,18.67
2019-03-22T18:28:53.912Z,16.60
2019-03-22T18:31:25.076Z,18.30
2019-03-22T18:33:56.136Z,17.43
2019-03-22T18:36:27.266Z,17.63
2019-03-22T18:38:58.240Z,17.83
2019-03-22T18:41:29.515Z,19.53
2019-03-22T18:44:00.413Z,18.90
2019-03-22T18:46:32.268Z,19.17
2019-03-22T18:49:03.366Z,17.53
2019-03-22T18:51:34.777Z,18.00
2019-03-22T18:54:06.829Z,17.10
2019-03-22T18:56:38.281Z,17.60
2019-03-22T18:59:09.306Z,18.37
2019-03-22T19:01:40.541Z,18.97
2019-03-22T19:04:11.785Z,15.73
2019-03-22T19:06:43.288Z,16.90
2019-03-22T19:09:14.451Z,16.57
2019-03-22T19:11:46.480Z,24.97
2019-03-22T19:14:17.679Z,20.25
2019-03-22T19:16:48.917Z,17.92
2019-03-22T19:19:20.297Z,15.95
2019-03-22T19:21:52.600Z,14.93
2019-03-22T19:24:23.743Z,15.73
2019-03-22T19:26:54.831Z,16.10
2019-03-22T19:29:25.997Z,14.07
2019-03-22T19:31:57.113Z,17.10
2019-03-22T19:34:28.382Z,15.90
2019-03-22T19:37:03.316Z,17.13
2019-03-22T19:39:34.437Z,14.90
2019-03-22T19:42:05.541Z,15.53
2019-03-22T19:44:36.659Z,14.57
2019-03-22T19:47:07.850Z,14.53
2019-03-22T19:49:38.981Z,13.85
2019-03-22T19:52:10.306Z,14.00
2019-03-22T19:54:41.227Z,15.30
2019-03-22T19:57:12.152Z,14.43
2019-03-22T19:59:43.318Z,16.93
2019-03-22T20:02:14.361Z,18.50
2019-03-22T20:04:46.295Z,16.30
2019-03-22T20:07:26.515Z,16.90
2019-03-22T20:09:50.401Z,16.13
2019-03-22T20:12:21.775Z,17.57
2019-03-22T20:14:53.458Z,16.40
2019-03-22T20:17:24.875Z,14.60
2019-03-22T20:19:56.223Z,13.93
2019-03-22T20:22:27.418Z,12.70
2019-03-22T20:24:58.762Z,13.33
2019-03-22T20:27:29.720Z,12.50
2019-03-22T20:30:01.044Z,11.20
2019-03-22T20:32:31.998Z,11.57
2019-03-22T20:35:03.012Z,12.07
2019-03-22T20:37:35.188Z,12.13
2019-03-22T20:40:06.652Z,15.00
2019-03-22T20:42:37.746Z,16.50
2019-03-22T20:45:09.282Z,13.90
2019-03-22T20:47:40.341Z,14.80
2019-03-22T20:50:12.468Z,12.40
2019-03-22T20:52:43.347Z,14.57
2019-03-22T20:55:14.675Z,14.18
2019-03-22T20:57:45.723Z,14.13
2019-03-22T21:00:16.926Z,12.67
2019-03-22T21:02:48.021Z,13.35
2019-03-22T21:05:26.951Z,15.33
2019-03-22T21:07:53.409Z,14.33
2019-03-22T21:10:24.522Z,14.77
2019-03-22T21:12:55.642Z,15.00
2019-03-22T21:15:26.685Z,16.87
2019-03-22T21:17:57.907Z,14.07
2019-03-22T21:20:29.106Z,13.37
2019-03-22T21:23:00.699Z,14.43
2019-03-22T21:25:31.858Z,15.53
2019-03-22T21:28:03.969Z,15.67
2019-03-22T21:30:36.308Z,14.77
2019-03-22T21:33:07.445Z,16.07
2019-03-22T21:35:38.578Z,16.77
2019-03-22T21:38:11.128Z,14.50
2019-03-22T21:40:43.367Z,14.55
2019-03-22T21:43:14.659Z,17.80
2019-03-22T21:45:45.823Z,15.70
2019-03-22T21:48:17.159Z,15.67
2019-03-22T21:50:48.331Z,16.87
2019-03-22T21:53:19.385Z,14.70
2019-03-22T21:55:50.530Z,14.63
2019-03-22T21:58:22.017Z,14.20
2019-03-22T22:00:53.153Z,13.10
2019-03-22T22:03:24.501Z,12.82
2019-03-22T22:05:55.870Z,12.73
2019-03-22T22:08:27.313Z,13.03
2019-03-22T22:10:59.947Z,12.13
2019-03-22T22:13:31.036Z,11.87
2019-03-22T22:16:02.128Z,12.57
2019-03-22T22:18:33.435Z,13.50
2019-03-22T22:21:04.340Z,11.70
2019-03-22T22:23:35.497Z,11.23
2019-03-22T22:26:06.676Z,9.97
2019-03-22T22:28:37.837Z,12.97
2019-03-22T22:31:08.887Z,11.10
2019-03-22T22:33:40.125Z,10.70
2019-03-22T22:36:10.996Z,13.33
2019-03-22T22:38:42.431Z,14.23
2019-03-22T22:41:13.603Z,12.80
2019-03-22T22:43:44.950Z,14.07
2019-03-22T22:46:16.033Z,13.40
2019-03-22T22:48:47.023Z,12.17
2019-03-22T22:51:18.010Z,13.33
2019-03-22T22:53:49.208Z,11.90
2019-03-22T22:56:20.222Z,11.40
2019-03-22T22:58:51.408Z,12.75
2019-03-22T23:01:22.989Z,13.57
2019-03-22T23:03:54.587Z,11.30
2019-03-22T23:06:25.629Z,12.73
2019-03-22T23:08:56.694Z,11.30
2019-03-22T23:11:27.885Z,10.93
2019-03-22T23:13:58.766Z,10.77
2019-03-22T23:16:29.702Z,11.10
2019-03-22T23:19:00.574Z,10.43
2019-03-22T23:21:31.753Z,11.63
2019-03-22T23:24:02.887Z,11.30
2019-03-22T23:26:33.946Z,11.67
2019-03-22T23:29:04.986Z,11.50
2019-03-22T23:31:36.081Z,11.67
2019-03-22T23:34:07.105Z,11.13
2019-03-22T23:36:37.868Z,12.27
2019-03-22T23:39:09.600Z,10.72
2019-03-22T23:41:40.575Z,10.07
2019-03-22T23:44:11.755Z,9.90
2019-03-22T23:46:42.898Z,10.27
2019-03-22T23:49:13.826Z,11.90
2019-03-22T23:51:44.715Z,11.17
2019-03-22T23:54:15.743Z,11.50
2019-03-22T23:56:46.890Z,12.05
2019-03-22T23:59:17.989Z,11.60
